sensor_id;sensor_type;location;lat;lon;timestamp;P1;durP1;ratioP1;P2;durP2;ratioP2
72813;SDS011;60945;48.516;-2.768;2023-07-08T00:00:16;13.45;;;12.25;;
72813;SDS011;60945;48.516;-2.768;2023-07-08T00:02:43;13.07;;;12.02;;
72813;SDS011;60945;48.516;-2.768;2023-07-08T00:05:13;12.98;;;11.68;;
72813;SDS011;60945;48.516;-2.768;2023-07-08T00:07:40;12.57;;;11.57;;
72813;SDS011;60945;48.516;-2.768;2023-07-08T00:10:15;12.95;;;11.75;;
72813;SDS011;60945;48.516;-2.768;2023-07-08T00:12:46;13.20;;;12.07;;
72813;SDS011;60945;48.516;-2.768;2023-07-08T00:15:14;13.35;;;12.15;;
72813;SDS011;60945;48.516;-2.768;2023-07-08T00:17:40;13.27;;;12.07;;
72813;SDS011;60945;48.516;-2.768;2023-07-08T00:20:20;12.90;;;11.70;;
72813;SDS011;60945;48.516;-2.768;2023-07-08T00:22:54;13.02;;;11.95;;
72813;SDS011;60945;48.516;-2.768;2023-07-08T00:25:20;13.32;;;12.10;;
72813;SDS011;60945;48.516;-2.768;2023-07-08T00:27:46;13.07;;;12.00;;
72813;SDS011;60945;48.516;-2.768;2023-07-08T00:30:31;12.75;;;11.52;;
72813;SDS011;60945;48.516;-2.768;2023-07-08T00:32:57;14.70;;;13.00;;
72813;SDS011;60945;48.516;-2.768;2023-07-08T00:35:40;12.98;;;11.68;;
72813;SDS011;60945;48.516;-2.768;2023-07-08T00:48:53;14.93;;;13.48;;
72813;SDS011;60945;48.516;-2.768;2023-07-08T00:51:23;14.50;;;13.10;;
72813;SDS011;60945;48.516;-2.768;2023-07-08T00:53:49;13.98;;;12.88;;
72813;SDS011;60945;48.516;-2.768;2023-07-08T00:56:16;13.50;;;12.40;;
72813;SDS011;60945;48.516;-2.768;2023-07-08T01:01:28;14.15;;;12.75;;
72813;SDS011;60945;48.516;-2.768;2023-07-08T01:04:42;13.98;;;12.60;;
72813;SDS011;60945;48.516;-2.768;2023-07-08T01:07:07;12.75;;;11.65;;
72813;SDS011;60945;48.516;-2.768;2023-07-08T01:09:36;15.63;;;12.20;;
72813;SDS011;60945;48.516;-2.768;2023-07-08T01:12:11;12.73;;;11.73;;
72813;SDS011;60945;48.516;-2.768;2023-07-08T01:14:40;12.57;;;11.57;;
72813;SDS011;60945;48.516;-2.768;2023-07-08T01:17:07;12.93;;;11.80;;
72813;SDS011;60945;48.516;-2.768;2023-07-08T01:19:39;12.07;;;11.10;;
72813;SDS011;60945;48.516;-2.768;2023-07-08T01:22:06;12.52;;;11.32;;
72813;SDS011;60945;48.516;-2.768;2023-07-08T01:24:35;12.32;;;10.98;;
72813;SDS011;60945;48.516;-2.768;2023-07-08T01:27:04;11.80;;;10.98;;
72813;SDS011;60945;48.516;-2.768;2023-07-08T01:29:31;12.77;;;11.63;;
72813;SDS011;60945;48.516;-2.768;2023-07-08T01:31:57;11.32;;;10.50;;
72813;SDS011;60945;48.516;-2.768;2023-07-08T01:34:27;11.68;;;10.68;;
72813;SDS011;60945;48.516;-2.768;2023-07-08T01:36:54;11.85;;;10.85;;
72813;SDS011;60945;48.516;-2.768;2023-07-08T01:39:22;11.80;;;10.70;;
72813;SDS011;60945;48.516;-2.768;2023-07-08T01:41:49;11.10;;;10.07;;
72813;SDS011;60945;48.516;-2.768;2023-07-08T01:44:20;11.45;;;10.40;;
72813;SDS011;60945;48.516;-2.768;2023-07-08T01:46:53;10.55;;;9.65;;
72813;SDS011;60945;48.516;-2.768;2023-07-08T01:49:22;10.93;;;10.02;;
72813;SDS011;60945;48.516;-2.768;2023-07-08T01:51:48;10.43;;;9.63;;
72813;SDS011;60945;48.516;-2.768;2023-07-08T01:54:14;10.88;;;9.90;;
72813;SDS011;60945;48.516;-2.768;2023-07-08T01:56:40;10.60;;;9.65;;
72813;SDS011;60945;48.516;-2.768;2023-07-08T01:59:06;11.27;;;10.38;;
72813;SDS011;60945;48.516;-2.768;2023-07-08T02:01:31;10.93;;;10.00;;
72813;SDS011;60945;48.516;-2.768;2023-07-08T02:03:57;10.23;;;9.35;;
72813;SDS011;60945;48.516;-2.768;2023-07-08T02:06:23;10.30;;;9.38;;
72813;SDS011;60945;48.516;-2.768;2023-07-08T02:08:48;10.80;;;9.80;;
72813;SDS011;60945;48.516;-2.768;2023-07-08T02:11:16;10.45;;;9.50;;
72813;SDS011;60945;48.516;-2.768;2023-07-08T02:13:42;10.10;;;9.30;;
72813;SDS011;60945;48.516;-2.768;2023-07-08T02:16:08;9.85;;;8.93;;
72813;SDS011;60945;48.516;-2.768;2023-07-08T02:18:33;10.48;;;9.57;;
72813;SDS011;60945;48.516;-2.768;2023-07-08T02:20:59;9.82;;;8.93;;
72813;SDS011;60945;48.516;-2.768;2023-07-08T02:23:25;9.63;;;8.93;;
72813;SDS011;60945;48.516;-2.768;2023-07-08T02:25:51;9.32;;;8.55;;
72813;SDS011;60945;48.516;-2.768;2023-07-08T02:28:17;9.52;;;8.82;;
72813;SDS011;60945;48.516;-2.768;2023-07-08T02:30:43;9.55;;;8.75;;
72813;SDS011;60945;48.516;-2.768;2023-07-08T02:33:11;9.25;;;8.45;;
72813;SDS011;60945;48.516;-2.768;2023-07-08T02:35:36;9.32;;;8.50;;
72813;SDS011;60945;48.516;-2.768;2023-07-08T02:38:02;9.43;;;8.73;;
72813;SDS011;60945;48.516;-2.768;2023-07-08T02:40:28;9.63;;;8.73;;
72813;SDS011;60945;48.516;-2.768;2023-07-08T02:42:54;9.73;;;8.73;;
72813;SDS011;60945;48.516;-2.768;2023-07-08T02:45:19;9.38;;;8.27;;
72813;SDS011;60945;48.516;-2.768;2023-07-08T02:47:45;8.68;;;7.93;;
72813;SDS011;60945;48.516;-2.768;2023-07-08T02:50:11;9.35;;;8.55;;
72813;SDS011;60945;48.516;-2.768;2023-07-08T02:52:37;9.02;;;8.32;;
72813;SDS011;60945;48.516;-2.768;2023-07-08T02:55:03;9.30;;;8.57;;
72813;SDS011;60945;48.516;-2.768;2023-07-08T02:57:29;9.45;;;8.55;;
72813;SDS011;60945;48.516;-2.768;2023-07-08T02:59:55;9.40;;;8.65;;
72813;SDS011;60945;48.516;-2.768;2023-07-08T03:02:21;9.15;;;8.35;;
72813;SDS011;60945;48.516;-2.768;2023-07-08T03:04:48;9.45;;;8.60;;
72813;SDS011;60945;48.516;-2.768;2023-07-08T03:07:15;9.07;;;8.38;;
72813;SDS011;60945;48.516;-2.768;2023-07-08T03:09:41;9.07;;;8.27;;
72813;SDS011;60945;48.516;-2.768;2023-07-08T03:12:07;9.45;;;8.57;;
72813;SDS011;60945;48.516;-2.768;2023-07-08T03:14:34;9.00;;;8.23;;
72813;SDS011;60945;48.516;-2.768;2023-07-08T03:17:01;9.07;;;8.38;;
72813;SDS011;60945;48.516;-2.768;2023-07-08T03:19:27;8.77;;;8.13;;
72813;SDS011;60945;48.516;-2.768;2023-07-08T03:21:53;9.32;;;8.60;;
72813;SDS011;60945;48.516;-2.768;2023-07-08T03:24:19;9.23;;;8.43;;
72813;SDS011;60945;48.516;-2.768;2023-07-08T03:26:45;9.57;;;8.65;;
72813;SDS011;60945;48.516;-2.768;2023-07-08T03:29:15;10.07;;;9.10;;
72813;SDS011;60945;48.516;-2.768;2023-07-08T03:31:42;9.00;;;8.20;;
72813;SDS011;60945;48.516;-2.768;2023-07-08T03:34:14;9.18;;;8.38;;
72813;SDS011;60945;48.516;-2.768;2023-07-08T03:36:43;8.82;;;8.13;;
72813;SDS011;60945;48.516;-2.768;2023-07-08T03:39:17;8.43;;;7.72;;
72813;SDS011;60945;48.516;-2.768;2023-07-08T03:41:44;8.45;;;7.82;;
72813;SDS011;60945;48.516;-2.768;2023-07-08T03:44:10;8.90;;;8.20;;
72813;SDS011;60945;48.516;-2.768;2023-07-08T03:46:36;9.13;;;8.32;;
72813;SDS011;60945;48.516;-2.768;2023-07-08T03:49:02;9.60;;;8.80;;
72813;SDS011;60945;48.516;-2.768;2023-07-08T03:51:29;9.10;;;8.38;;
72813;SDS011;60945;48.516;-2.768;2023-07-08T03:53:57;8.75;;;7.95;;
72813;SDS011;60945;48.516;-2.768;2023-07-08T03:56:22;8.80;;;8.02;;
72813;SDS011;60945;48.516;-2.768;2023-07-08T03:58:49;9.15;;;8.45;;
72813;SDS011;60945;48.516;-2.768;2023-07-08T04:01:16;8.75;;;8.05;;
72813;SDS011;60945;48.516;-2.768;2023-07-08T04:03:43;8.70;;;8.00;;
72813;SDS011;60945;48.516;-2.768;2023-07-08T04:06:09;8.88;;;8.27;;
72813;SDS011;60945;48.516;-2.768;2023-07-08T04:08:35;9.25;;;8.55;;
72813;SDS011;60945;48.516;-2.768;2023-07-08T04:11:00;8.73;;;8.10;;
72813;SDS011;60945;48.516;-2.768;2023-07-08T04:13:26;9.05;;;8.25;;
72813;SDS011;60945;48.516;-2.768;2023-07-08T04:15:53;8.77;;;8.05;;
72813;SDS011;60945;48.516;-2.768;2023-07-08T04:18:22;8.50;;;7.80;;
72813;SDS011;60945;48.516;-2.768;2023-07-08T04:20:47;8.90;;;8.20;;
72813;SDS011;60945;48.516;-2.768;2023-07-08T04:23:17;8.40;;;7.80;;
72813;SDS011;60945;48.516;-2.768;2023-07-08T04:25:43;9.30;;;8.60;;
72813;SDS011;60945;48.516;-2.768;2023-07-08T04:28:09;9.30;;;8.50;;
72813;SDS011;60945;48.516;-2.768;2023-07-08T04:30:35;8.48;;;7.85;;
72813;SDS011;60945;48.516;-2.768;2023-07-08T04:33:06;8.98;;;8.27;;
72813;SDS011;60945;48.516;-2.768;2023-07-08T04:35:35;8.57;;;7.88;;
72813;SDS011;60945;48.516;-2.768;2023-07-08T04:38:03;9.10;;;8.50;;
72813;SDS011;60945;48.516;-2.768;2023-07-08T04:40:34;9.05;;;8.30;;
72813;SDS011;60945;48.516;-2.768;2023-07-08T04:43:08;8.65;;;8.05;;
72813;SDS011;60945;48.516;-2.768;2023-07-08T04:45:36;9.48;;;8.80;;
72813;SDS011;60945;48.516;-2.768;2023-07-08T04:48:02;9.27;;;8.38;;
72813;SDS011;60945;48.516;-2.768;2023-07-08T04:50:37;13.30;;;8.75;;
72813;SDS011;60945;48.516;-2.768;2023-07-08T04:53:10;9.18;;;8.50;;
72813;SDS011;60945;48.516;-2.768;2023-07-08T04:55:41;9.90;;;9.10;;
72813;SDS011;60945;48.516;-2.768;2023-07-08T04:58:09;10.38;;;8.90;;
72813;SDS011;60945;48.516;-2.768;2023-07-08T05:00:35;10.00;;;9.23;;
72813;SDS011;60945;48.516;-2.768;2023-07-08T05:03:01;10.35;;;9.27;;
72813;SDS011;60945;48.516;-2.768;2023-07-08T05:05:27;9.85;;;8.95;;
72813;SDS011;60945;48.516;-2.768;2023-07-08T05:07:52;9.80;;;9.00;;
72813;SDS011;60945;48.516;-2.768;2023-07-08T05:10:18;10.50;;;9.68;;
72813;SDS011;60945;48.516;-2.768;2023-07-08T05:12:44;9.80;;;9.10;;
72813;SDS011;60945;48.516;-2.768;2023-07-08T05:15:12;9.35;;;8.65;;
72813;SDS011;60945;48.516;-2.768;2023-07-08T05:17:38;10.20;;;9.20;;
72813;SDS011;60945;48.516;-2.768;2023-07-08T05:20:05;10.57;;;9.68;;
72813;SDS011;60945;48.516;-2.768;2023-07-08T05:22:32;10.52;;;9.40;;
72813;SDS011;60945;48.516;-2.768;2023-07-08T05:24:58;10.45;;;9.52;;
72813;SDS011;60945;48.516;-2.768;2023-07-08T05:27:24;9.60;;;9.00;;
72813;SDS011;60945;48.516;-2.768;2023-07-08T05:29:50;10.90;;;9.90;;
72813;SDS011;60945;48.516;-2.768;2023-07-08T05:32:16;9.98;;;9.35;;
72813;SDS011;60945;48.516;-2.768;2023-07-08T05:34:42;10.82;;;9.90;;
72813;SDS011;60945;48.516;-2.768;2023-07-08T05:37:08;10.35;;;9.60;;
72813;SDS011;60945;48.516;-2.768;2023-07-08T05:39:34;10.30;;;9.55;;
72813;SDS011;60945;48.516;-2.768;2023-07-08T05:42:00;10.48;;;9.63;;
72813;SDS011;60945;48.516;-2.768;2023-07-08T05:44:26;10.18;;;9.38;;
72813;SDS011;60945;48.516;-2.768;2023-07-08T05:46:51;10.23;;;9.43;;
72813;SDS011;60945;48.516;-2.768;2023-07-08T05:49:17;10.02;;;9.30;;
72813;SDS011;60945;48.516;-2.768;2023-07-08T05:51:43;10.40;;;9.43;;
72813;SDS011;60945;48.516;-2.768;2023-07-08T05:54:09;10.18;;;9.43;;
72813;SDS011;60945;48.516;-2.768;2023-07-08T05:56:35;10.80;;;9.90;;
72813;SDS011;60945;48.516;-2.768;2023-07-08T05:59:01;10.27;;;9.57;;
72813;SDS011;60945;48.516;-2.768;2023-07-08T06:01:27;10.15;;;9.35;;
72813;SDS011;60945;48.516;-2.768;2023-07-08T06:03:53;10.90;;;10.10;;
72813;SDS011;60945;48.516;-2.768;2023-07-08T06:06:23;10.82;;;9.88;;
72813;SDS011;60945;48.516;-2.768;2023-07-08T06:08:49;10.38;;;9.48;;
72813;SDS011;60945;48.516;-2.768;2023-07-08T06:11:14;11.02;;;10.13;;
72813;SDS011;60945;48.516;-2.768;2023-07-08T06:13:41;10.50;;;9.70;;
72813;SDS011;60945;48.516;-2.768;2023-07-08T06:16:06;10.55;;;9.65;;
72813;SDS011;60945;48.516;-2.768;2023-07-08T06:18:32;10.05;;;9.32;;
72813;SDS011;60945;48.516;-2.768;2023-07-08T06:20:58;10.63;;;9.63;;
72813;SDS011;60945;48.516;-2.768;2023-07-08T06:23:24;10.52;;;9.82;;
72813;SDS011;60945;48.516;-2.768;2023-07-08T06:25:50;10.05;;;9.25;;
72813;SDS011;60945;48.516;-2.768;2023-07-08T06:28:16;10.75;;;9.90;;
72813;SDS011;60945;48.516;-2.768;2023-07-08T06:30:41;11.75;;;10.07;;
72813;SDS011;60945;48.516;-2.768;2023-07-08T06:33:07;10.50;;;9.55;;
72813;SDS011;60945;48.516;-2.768;2023-07-08T06:35:33;11.00;;;10.10;;
72813;SDS011;60945;48.516;-2.768;2023-07-08T06:37:58;10.90;;;9.90;;
72813;SDS011;60945;48.516;-2.768;2023-07-08T06:40:24;10.80;;;10.13;;
72813;SDS011;60945;48.516;-2.768;2023-07-08T06:42:49;10.75;;;9.73;;
72813;SDS011;60945;48.516;-2.768;2023-07-08T06:45:15;11.13;;;10.27;;
72813;SDS011;60945;48.516;-2.768;2023-07-08T06:47:41;10.73;;;9.82;;
72813;SDS011;60945;48.516;-2.768;2023-07-08T06:50:07;10.85;;;9.85;;
72813;SDS011;60945;48.516;-2.768;2023-07-08T06:52:33;10.30;;;9.60;;
72813;SDS011;60945;48.516;-2.768;2023-07-08T06:55:02;10.45;;;9.75;;
72813;SDS011;60945;48.516;-2.768;2023-07-08T06:57:33;10.85;;;9.95;;
72813;SDS011;60945;48.516;-2.768;2023-07-08T06:59:59;10.57;;;9.88;;
72813;SDS011;60945;48.516;-2.768;2023-07-08T07:02:25;10.75;;;9.95;;
72813;SDS011;60945;48.516;-2.768;2023-07-08T07:04:51;10.90;;;10.00;;
72813;SDS011;60945;48.516;-2.768;2023-07-08T07:07:17;11.45;;;10.52;;
72813;SDS011;60945;48.516;-2.768;2023-07-08T07:09:43;11.43;;;10.63;;
72813;SDS011;60945;48.516;-2.768;2023-07-08T07:12:08;11.52;;;10.45;;
72813;SDS011;60945;48.516;-2.768;2023-07-08T07:14:34;10.82;;;10.02;;
72813;SDS011;60945;48.516;-2.768;2023-07-08T07:17:00;10.88;;;10.07;;
72813;SDS011;60945;48.516;-2.768;2023-07-08T07:19:26;11.13;;;9.98;;
72813;SDS011;60945;48.516;-2.768;2023-07-08T07:21:51;11.13;;;10.32;;
72813;SDS011;60945;48.516;-2.768;2023-07-08T07:24:17;10.93;;;10.00;;
72813;SDS011;60945;48.516;-2.768;2023-07-08T07:26:43;11.15;;;10.32;;
72813;SDS011;60945;48.516;-2.768;2023-07-08T07:29:09;10.82;;;10.07;;
72813;SDS011;60945;48.516;-2.768;2023-07-08T07:31:35;11.23;;;10.30;;
72813;SDS011;60945;48.516;-2.768;2023-07-08T07:34:01;11.00;;;10.13;;
72813;SDS011;60945;48.516;-2.768;2023-07-08T07:36:27;11.15;;;10.25;;
72813;SDS011;60945;48.516;-2.768;2023-07-08T07:38:54;10.93;;;10.00;;
72813;SDS011;60945;48.516;-2.768;2023-07-08T07:41:19;11.52;;;10.70;;
72813;SDS011;60945;48.516;-2.768;2023-07-08T07:43:45;11.05;;;10.15;;
72813;SDS011;60945;48.516;-2.768;2023-07-08T07:46:11;11.73;;;10.70;;
72813;SDS011;60945;48.516;-2.768;2023-07-08T07:48:37;11.10;;;10.32;;
72813;SDS011;60945;48.516;-2.768;2023-07-08T07:51:04;11.50;;;10.55;;
72813;SDS011;60945;48.516;-2.768;2023-07-08T07:53:30;10.80;;;10.05;;
72813;SDS011;60945;48.516;-2.768;2023-07-08T07:55:59;11.13;;;10.25;;
72813;SDS011;60945;48.516;-2.768;2023-07-08T07:58:27;11.23;;;10.43;;
72813;SDS011;60945;48.516;-2.768;2023-07-08T08:00:53;10.68;;;9.98;;
72813;SDS011;60945;48.516;-2.768;2023-07-08T08:03:19;10.63;;;9.75;;
72813;SDS011;60945;48.516;-2.768;2023-07-08T08:05:45;10.77;;;9.98;;
72813;SDS011;60945;48.516;-2.768;2023-07-08T08:08:11;10.00;;;9.30;;
72813;SDS011;60945;48.516;-2.768;2023-07-08T08:10:37;11.13;;;10.30;;
72813;SDS011;60945;48.516;-2.768;2023-07-08T08:13:02;10.23;;;9.52;;
72813;SDS011;60945;48.516;-2.768;2023-07-08T08:15:28;10.75;;;9.80;;
72813;SDS011;60945;48.516;-2.768;2023-07-08T08:17:54;10.38;;;9.60;;
72813;SDS011;60945;48.516;-2.768;2023-07-08T08:20:20;10.82;;;10.02;;
72813;SDS011;60945;48.516;-2.768;2023-07-08T08:22:48;10.52;;;9.52;;
72813;SDS011;60945;48.516;-2.768;2023-07-08T08:25:14;10.20;;;9.30;;
72813;SDS011;60945;48.516;-2.768;2023-07-08T08:27:40;10.88;;;9.90;;
72813;SDS011;60945;48.516;-2.768;2023-07-08T08:30:06;11.18;;;10.32;;
72813;SDS011;60945;48.516;-2.768;2023-07-08T08:32:33;9.93;;;9.13;;
72813;SDS011;60945;48.516;-2.768;2023-07-08T08:34:58;10.77;;;9.88;;
72813;SDS011;60945;48.516;-2.768;2023-07-08T08:37:24;10.52;;;9.82;;
72813;SDS011;60945;48.516;-2.768;2023-07-08T08:39:49;10.23;;;9.43;;
72813;SDS011;60945;48.516;-2.768;2023-07-08T08:42:30;10.77;;;9.98;;
72813;SDS011;60945;48.516;-2.768;2023-07-08T08:45:13;10.65;;;9.85;;
72813;SDS011;60945;48.516;-2.768;2023-07-08T08:47:44;10.45;;;9.65;;
72813;SDS011;60945;48.516;-2.768;2023-07-08T08:52:43;10.10;;;9.23;;
72813;SDS011;60945;48.516;-2.768;2023-07-08T08:55:12;10.15;;;9.20;;
72813;SDS011;60945;48.516;-2.768;2023-07-08T09:00:51;9.80;;;8.90;;
72813;SDS011;60945;48.516;-2.768;2023-07-08T09:06:16;9.63;;;8.98;;
72813;SDS011;60945;48.516;-2.768;2023-07-08T09:08:52;9.68;;;9.07;;
72813;SDS011;60945;48.516;-2.768;2023-07-08T09:14:15;9.38;;;8.68;;
72813;SDS011;60945;48.516;-2.768;2023-07-08T09:16:47;8.95;;;8.25;;
72813;SDS011;60945;48.516;-2.768;2023-07-08T09:19:22;8.80;;;8.15;;
72813;SDS011;60945;48.516;-2.768;2023-07-08T09:24:34;9.13;;;8.52;;
72813;SDS011;60945;48.516;-2.768;2023-07-08T09:27:01;8.57;;;7.95;;
72813;SDS011;60945;48.516;-2.768;2023-07-08T09:29:27;8.77;;;8.10;;
72813;SDS011;60945;48.516;-2.768;2023-07-08T09:31:53;9.52;;;8.82;;
72813;SDS011;60945;48.516;-2.768;2023-07-08T09:34:21;8.85;;;8.25;;
72813;SDS011;60945;48.516;-2.768;2023-07-08T09:36:48;8.93;;;8.43;;
72813;SDS011;60945;48.516;-2.768;2023-07-08T09:39:16;9.35;;;8.65;;
72813;SDS011;60945;48.516;-2.768;2023-07-08T09:41:46;9.00;;;8.30;;
72813;SDS011;60945;48.516;-2.768;2023-07-08T09:44:14;8.93;;;8.32;;
72813;SDS011;60945;48.516;-2.768;2023-07-08T09:46:48;9.30;;;8.70;;
72813;SDS011;60945;48.516;-2.768;2023-07-08T09:49:18;8.80;;;8.20;;
72813;SDS011;60945;48.516;-2.768;2023-07-08T09:51:58;8.48;;;7.90;;
72813;SDS011;60945;48.516;-2.768;2023-07-08T09:54:25;9.10;;;8.55;;
72813;SDS011;60945;48.516;-2.768;2023-07-08T09:56:54;9.18;;;8.57;;
72813;SDS011;60945;48.516;-2.768;2023-07-08T09:59:30;9.45;;;8.80;;
72813;SDS011;60945;48.516;-2.768;2023-07-08T10:02:12;9.23;;;8.63;;
72813;SDS011;60945;48.516;-2.768;2023-07-08T10:04:45;9.13;;;8.63;;
72813;SDS011;60945;48.516;-2.768;2023-07-08T10:07:14;9.32;;;8.73;;
72813;SDS011;60945;48.516;-2.768;2023-07-08T10:09:42;9.35;;;8.82;;
72813;SDS011;60945;48.516;-2.768;2023-07-08T10:12:09;9.57;;;9.00;;
72813;SDS011;60945;48.516;-2.768;2023-07-08T10:14:39;8.90;;;8.37;;
72813;SDS011;60945;48.516;-2.768;2023-07-08T10:17:13;9.18;;;8.65;;
72813;SDS011;60945;48.516;-2.768;2023-07-08T10:19:43;9.68;;;9.07;;
72813;SDS011;60945;48.516;-2.768;2023-07-08T10:27:39;9.77;;;9.20;;
72813;SDS011;60945;48.516;-2.768;2023-07-08T10:30:26;9.52;;;9.02;;
72813;SDS011;60945;48.516;-2.768;2023-07-08T10:36:05;10.05;;;9.30;;
72813;SDS011;60945;48.516;-2.768;2023-07-08T10:44:55;9.95;;;9.25;;
72813;SDS011;60945;48.516;-2.768;2023-07-08T10:47:54;10.43;;;9.70;;
72813;SDS011;60945;48.516;-2.768;2023-07-08T10:56:11;10.27;;;9.73;;
72813;SDS011;60945;48.516;-2.768;2023-07-08T10:59:06;9.60;;;9.10;;
72813;SDS011;60945;48.516;-2.768;2023-07-08T11:07:00;9.68;;;9.07;;
72813;SDS011;60945;48.516;-2.768;2023-07-08T11:09:56;10.10;;;9.38;;
72813;SDS011;60945;48.516;-2.768;2023-07-08T11:12:36;9.68;;;9.15;;
72813;SDS011;60945;48.516;-2.768;2023-07-08T11:17:43;10.20;;;9.50;;
72813;SDS011;60945;48.516;-2.768;2023-07-08T11:20:20;9.48;;;8.88;;
72813;SDS011;60945;48.516;-2.768;2023-07-08T11:22:54;9.38;;;8.77;;
72813;SDS011;60945;48.516;-2.768;2023-07-08T11:25:31;9.63;;;8.88;;
72813;SDS011;60945;48.516;-2.768;2023-07-08T11:27:59;10.23;;;9.48;;
72813;SDS011;60945;48.516;-2.768;2023-07-08T11:30:28;9.90;;;9.30;;
72813;SDS011;60945;48.516;-2.768;2023-07-08T11:33:02;10.00;;;9.30;;
72813;SDS011;60945;48.516;-2.768;2023-07-08T11:38:10;9.68;;;9.15;;
72813;SDS011;60945;48.516;-2.768;2023-07-08T11:43:17;9.40;;;8.77;;
72813;SDS011;60945;48.516;-2.768;2023-07-08T11:45:44;9.05;;;8.40;;
72813;SDS011;60945;48.516;-2.768;2023-07-08T11:48:14;8.82;;;8.32;;
72813;SDS011;60945;48.516;-2.768;2023-07-08T11:50:50;8.85;;;8.18;;
72813;SDS011;60945;48.516;-2.768;2023-07-08T11:55:58;8.02;;;7.63;;
72813;SDS011;60945;48.516;-2.768;2023-07-08T11:58:27;8.90;;;8.20;;
72813;SDS011;60945;48.516;-2.768;2023-07-08T12:00:58;8.52;;;8.00;;
72813;SDS011;60945;48.516;-2.768;2023-07-08T12:03:38;8.70;;;8.20;;
72813;SDS011;60945;48.516;-2.768;2023-07-08T12:08:52;8.85;;;8.25;;
72813;SDS011;60945;48.516;-2.768;2023-07-08T12:11:19;8.57;;;7.97;;
72813;SDS011;60945;48.516;-2.768;2023-07-08T12:13:53;9.05;;;8.48;;
72813;SDS011;60945;48.516;-2.768;2023-07-08T12:16:22;8.63;;;8.02;;
72813;SDS011;60945;48.516;-2.768;2023-07-08T12:18:48;8.90;;;8.23;;
72813;SDS011;60945;48.516;-2.768;2023-07-08T12:21:15;9.30;;;8.70;;
72813;SDS011;60945;48.516;-2.768;2023-07-08T12:23:45;8.57;;;8.07;;
72813;SDS011;60945;48.516;-2.768;2023-07-08T12:26:11;8.90;;;8.30;;
72813;SDS011;60945;48.516;-2.768;2023-07-08T12:28:38;9.27;;;8.60;;
72813;SDS011;60945;48.516;-2.768;2023-07-08T12:31:08;9.50;;;8.90;;
72813;SDS011;60945;48.516;-2.768;2023-07-08T12:33:43;8.98;;;8.38;;
72813;SDS011;60945;48.516;-2.768;2023-07-08T12:36:10;9.48;;;8.88;;
72813;SDS011;60945;48.516;-2.768;2023-07-08T12:38:42;9.30;;;8.80;;
72813;SDS011;60945;48.516;-2.768;2023-07-08T12:41:20;9.20;;;8.60;;
72813;SDS011;60945;48.516;-2.768;2023-07-08T12:43:48;9.30;;;8.80;;
72813;SDS011;60945;48.516;-2.768;2023-07-08T12:46:15;8.93;;;8.43;;
72813;SDS011;60945;48.516;-2.768;2023-07-08T12:48:43;8.73;;;8.13;;
72813;SDS011;60945;48.516;-2.768;2023-07-08T12:51:10;8.38;;;7.88;;
72813;SDS011;60945;48.516;-2.768;2023-07-08T12:53:41;8.45;;;7.95;;
72813;SDS011;60945;48.516;-2.768;2023-07-08T12:56:08;8.48;;;7.78;;
72813;SDS011;60945;48.516;-2.768;2023-07-08T12:58:42;8.45;;;7.95;;
72813;SDS011;60945;48.516;-2.768;2023-07-08T13:01:13;7.60;;;7.10;;
72813;SDS011;60945;48.516;-2.768;2023-07-08T13:03:43;10.55;;;9.80;;
72813;SDS011;60945;48.516;-2.768;2023-07-08T13:06:12;11.50;;;10.48;;
72813;SDS011;60945;48.516;-2.768;2023-07-08T13:08:42;11.13;;;10.20;;
72813;SDS011;60945;48.516;-2.768;2023-07-08T13:11:08;10.85;;;9.93;;
72813;SDS011;60945;48.516;-2.768;2023-07-08T13:13:42;10.45;;;9.52;;
72813;SDS011;60945;48.516;-2.768;2023-07-08T13:16:19;10.15;;;9.45;;
72813;SDS011;60945;48.516;-2.768;2023-07-08T13:18:46;10.02;;;9.32;;
72813;SDS011;60945;48.516;-2.768;2023-07-08T13:21:13;9.90;;;9.10;;
72813;SDS011;60945;48.516;-2.768;2023-07-08T13:23:41;9.77;;;8.80;;
72813;SDS011;60945;48.516;-2.768;2023-07-08T13:26:14;9.32;;;8.55;;
72813;SDS011;60945;48.516;-2.768;2023-07-08T13:28:42;8.77;;;8.07;;
72813;SDS011;60945;48.516;-2.768;2023-07-08T13:31:14;9.70;;;8.90;;
72813;SDS011;60945;48.516;-2.768;2023-07-08T13:33:51;8.85;;;8.15;;
72813;SDS011;60945;48.516;-2.768;2023-07-08T13:36:31;8.95;;;8.25;;
72813;SDS011;60945;48.516;-2.768;2023-07-08T13:39:00;9.15;;;8.23;;
72813;SDS011;60945;48.516;-2.768;2023-07-08T13:41:28;8.73;;;8.10;;
72813;SDS011;60945;48.516;-2.768;2023-07-08T13:43:54;8.65;;;8.05;;
72813;SDS011;60945;48.516;-2.768;2023-07-08T13:46:39;8.35;;;7.75;;
72813;SDS011;60945;48.516;-2.768;2023-07-08T13:49:26;8.30;;;7.70;;
72813;SDS011;60945;48.516;-2.768;2023-07-08T13:54:40;9.63;;;8.68;;
72813;SDS011;60945;48.516;-2.768;2023-07-08T13:57:14;8.70;;;8.10;;
72813;SDS011;60945;48.516;-2.768;2023-07-08T13:59:41;8.50;;;7.90;;
72813;SDS011;60945;48.516;-2.768;2023-07-08T14:02:15;9.00;;;8.30;;
72813;SDS011;60945;48.516;-2.768;2023-07-08T14:04:42;9.27;;;8.48;;
72813;SDS011;60945;48.516;-2.768;2023-07-08T14:07:28;8.85;;;8.10;;
72813;SDS011;60945;48.516;-2.768;2023-07-08T14:09:56;8.90;;;8.20;;
72813;SDS011;60945;48.516;-2.768;2023-07-08T14:12:22;8.48;;;7.75;;
72813;SDS011;60945;48.516;-2.768;2023-07-08T14:14:48;8.88;;;8.13;;
72813;SDS011;60945;48.516;-2.768;2023-07-08T14:17:19;8.88;;;7.97;;
72813;SDS011;60945;48.516;-2.768;2023-07-08T14:19:48;8.48;;;7.75;;
72813;SDS011;60945;48.516;-2.768;2023-07-08T14:24:40;8.32;;;7.72;;
72813;SDS011;60945;48.516;-2.768;2023-07-08T14:27:07;8.57;;;7.78;;
72813;SDS011;60945;48.516;-2.768;2023-07-08T14:29:38;8.57;;;7.78;;
72813;SDS011;60945;48.516;-2.768;2023-07-08T14:32:07;8.75;;;8.13;;
72813;SDS011;60945;48.516;-2.768;2023-07-08T14:34:38;8.60;;;8.00;;
72813;SDS011;60945;48.516;-2.768;2023-07-08T14:37:08;8.80;;;8.00;;
72813;SDS011;60945;48.516;-2.768;2023-07-08T14:39:42;8.50;;;7.90;;
72813;SDS011;60945;48.516;-2.768;2023-07-08T14:42:10;8.35;;;7.70;;
72813;SDS011;60945;48.516;-2.768;2023-07-08T14:44:37;8.13;;;7.63;;
72813;SDS011;60945;48.516;-2.768;2023-07-08T14:47:07;9.05;;;8.38;;
72813;SDS011;60945;48.516;-2.768;2023-07-08T14:49:35;7.97;;;7.38;;
72813;SDS011;60945;48.516;-2.768;2023-07-08T14:52:01;9.20;;;8.60;;
72813;SDS011;60945;48.516;-2.768;2023-07-08T14:54:26;8.50;;;7.90;;
72813;SDS011;60945;48.516;-2.768;2023-07-08T14:56:52;8.32;;;7.65;;
72813;SDS011;60945;48.516;-2.768;2023-07-08T14:59:21;8.55;;;8.02;;
72813;SDS011;60945;48.516;-2.768;2023-07-08T15:01:49;8.65;;;7.95;;
72813;SDS011;60945;48.516;-2.768;2023-07-08T15:04:16;8.40;;;7.80;;
72813;SDS011;60945;48.516;-2.768;2023-07-08T15:06:43;9.05;;;8.30;;
72813;SDS011;60945;48.516;-2.768;2023-07-08T15:09:10;8.52;;;7.90;;
72813;SDS011;60945;48.516;-2.768;2023-07-08T15:11:36;8.30;;;7.60;;
72813;SDS011;60945;48.516;-2.768;2023-07-08T15:14:04;8.07;;;7.47;;
72813;SDS011;60945;48.516;-2.768;2023-07-08T15:16:36;8.15;;;7.40;;
72813;SDS011;60945;48.516;-2.768;2023-07-08T15:19:07;8.23;;;7.63;;
72813;SDS011;60945;48.516;-2.768;2023-07-08T15:21:35;8.80;;;8.10;;
72813;SDS011;60945;48.516;-2.768;2023-07-08T15:24:01;8.45;;;7.75;;
72813;SDS011;60945;48.516;-2.768;2023-07-08T15:26:26;8.13;;;7.53;;
72813;SDS011;60945;48.516;-2.768;2023-07-08T15:28:52;7.50;;;7.00;;
72813;SDS011;60945;48.516;-2.768;2023-07-08T15:31:24;8.10;;;7.47;;
72813;SDS011;60945;48.516;-2.768;2023-07-08T15:33:52;7.82;;;7.13;;
72813;SDS011;60945;48.516;-2.768;2023-07-08T15:36:18;8.18;;;7.57;;
72813;SDS011;60945;48.516;-2.768;2023-07-08T15:38:44;7.57;;;6.95;;
72813;SDS011;60945;48.516;-2.768;2023-07-08T15:41:22;7.90;;;7.30;;
72813;SDS011;60945;48.516;-2.768;2023-07-08T15:43:52;7.80;;;7.13;;
72813;SDS011;60945;48.516;-2.768;2023-07-08T15:46:19;7.60;;;7.10;;